createdAt,value
2019-03-01T04:48:20.483Z,100272.46
2019-03-01T04:50:51.145Z,100275.79
2019-03-01T04:53:21.858Z,100271.92
2019-03-01T04:55:52.385Z,100271.17
2019-03-01T04:58:22.916Z,100280.78
2019-03-01T05:00:53.446Z,100278.82
2019-03-01T05:03:23.975Z,100278.95
2019-03-01T05:05:54.605Z,100277.34
2019-03-01T05:08:29.129Z,100274.27
2019-03-01T05:10:59.661Z,100268.48
2019-03-01T05:13:30.197Z,100271.45
2019-03-01T05:16:00.816Z,100267.52
2019-03-01T05:18:31.459Z,100258.31
2019-03-01T05:21:01.991Z,100259.55
2019-03-01T05:23:32.714Z,100263.94
2019-03-01T05:26:03.250Z,100265.76
2019-03-01T05:28:33.751Z,100261.44
2019-03-01T05:31:04.433Z,100261.53
2019-03-01T05:33:34.952Z,100262.12
2019-03-01T05:36:05.479Z,100270.50
2019-03-01T05:38:36.107Z,100268.39
2019-03-01T05:41:06.645Z,100270.95
2019-03-01T05:43:37.136Z,100264.64
2019-03-01T05:46:07.704Z,100269.88
2019-03-01T05:48:38.230Z,100272.61
2019-03-01T05:51:09.071Z,100269.12
2019-03-01T05:53:39.597Z,100270.21
2019-03-01T05:56:10.065Z,100267.20
2019-03-01T05:58:40.560Z,100269.89
2019-03-01T06:01:23.268Z,100266.28
2019-03-01T06:03:56.956Z,100274.73
2019-03-01T06:06:42.792Z,100281.27
2019-03-01T06:09:28.651Z,100279.59
2019-03-01T06:12:21.927Z,100274.73
2019-03-01T06:15:12.266Z,100280.36
2019-03-01T06:17:54.320Z,100282.83
2019-03-01T06:20:49.422Z,100276.93
2019-03-01T06:23:26.114Z,100283.73
2019-03-01T06:26:02.606Z,100284.43
2019-03-01T06:28:55.635Z,100283.86
2019-03-01T06:31:45.726Z,100293.50
2019-03-01T06:34:31.240Z,100296.19
2019-03-01T06:37:14.382Z,100296.45
2019-03-01T06:40:07.760Z,100294.80
2019-03-01T06:42:53.123Z,100299.30
2019-03-01T06:45:26.943Z,100299.45
2019-03-01T06:47:57.449Z,100308.06
2019-03-01T06:50:33.203Z,100305.95
2019-03-01T06:53:03.707Z,100303.39
2019-03-01T06:55:38.813Z,100305.66
2019-03-01T06:58:12.318Z,100297.83
2019-03-01T07:00:50.084Z,100296.60
2019-03-01T07:03:16.764Z,100305.15
2019-03-01T07:05:47.306Z,100307.12
2019-03-01T07:08:18.037Z,100294.20
2019-03-01T07:10:48.666Z,100289.02
2019-03-01T07:13:20.243Z,100285.16
2019-03-01T07:15:50.721Z,100280.96
2019-03-01T07:18:21.214Z,100282.83
2019-03-01T07:20:51.737Z,100291.19
2019-03-01T07:23:22.349Z,100293.44
2019-03-01T07:25:54.782Z,100289.08
2019-03-01T07:28:25.045Z,100291.79
2019-03-01T07:30:55.782Z,100291.12
2019-03-01T07:33:26.372Z,100288.92
2019-03-01T07:35:57.923Z,100291.80
2019-03-01T07:38:28.451Z,100284.19
2019-03-01T07:40:59.023Z,100284.46
2019-03-01T07:43:29.554Z,100285.25
2019-03-01T07:46:00.194Z,100287.66
2019-03-01T07:48:30.725Z,100288.65
2019-03-01T07:51:02.436Z,100293.58
2019-03-01T07:53:36.106Z,100285.53
2019-03-01T07:56:05.615Z,100287.86
2019-03-01T07:58:36.262Z,100286.50
2019-03-01T08:01:06.793Z,100288.66
2019-03-01T08:03:37.342Z,100287.03
2019-03-01T08:06:13.151Z,100292.50
2019-03-01T08:08:40.153Z,100298.66
2019-03-01T08:11:10.667Z,100297.02
2019-03-01T08:13:41.289Z,100299.45
2019-03-01T08:16:11.837Z,100298.10
2019-03-01T08:18:44.157Z,100293.27
2019-03-01T08:21:15.035Z,100297.04
2019-03-01T08:23:45.721Z,100295.63
2019-03-01T08:26:16.255Z,100298.86
2019-03-01T08:28:46.785Z,100301.63
2019-03-01T08:31:20.914Z,100295.86
2019-03-01T08:33:49.609Z,100299.02
2019-03-01T08:36:20.118Z,100297.05
2019-03-01T08:38:50.682Z,100295.09
2019-03-01T08:41:21.540Z,100302.31
2019-03-01T08:43:54.539Z,100302.02
2019-03-01T08:46:26.796Z,100303.08
2019-03-01T08:48:57.485Z,100304.72
2019-03-01T08:51:28.218Z,100302.08
2019-03-01T08:53:58.848Z,100305.16
2019-03-01T08:56:29.490Z,100303.44
2019-03-01T08:59:00.770Z,100300.28
2019-03-01T09:01:31.813Z,100303.53
2019-03-01T09:04:06.169Z,100313.24
2019-03-01T09:06:36.798Z,100297.95
2019-03-01T09:09:08.805Z,100301.10
2019-03-01T09:11:41.764Z,100304.55
2019-03-01T09:14:12.390Z,100301.84
2019-03-01T09:16:46.321Z,100299.39
2019-03-01T09:19:16.816Z,100295.98
2019-03-01T09:21:50.150Z,100296.39
2019-03-01T09:24:21.299Z,100303.20
2019-03-01T09:26:55.171Z,100300.84
2019-03-01T09:29:24.710Z,100301.50
2019-03-01T09:31:57.640Z,100300.95
2019-03-01T09:34:28.615Z,100300.81
2019-03-01T09:36:59.790Z,100303.03
2019-03-01T09:39:30.293Z,100303.09
2019-03-01T09:42:04.416Z,100300.58
2019-03-01T09:44:34.654Z,100298.97
2019-03-01T09:47:05.344Z,100302.64
2019-03-01T09:49:35.919Z,100295.03
2019-03-01T09:52:06.478Z,100299.29
2019-03-01T09:54:37.189Z,100299.81
2019-03-01T09:57:07.919Z,100306.13
2019-03-01T09:59:38.560Z,100294.67
2019-03-01T10:02:09.289Z,100303.41
2019-03-01T10:04:39.928Z,100305.59
2019-03-01T10:07:10.556Z,100300.59
2019-03-01T10:09:42.886Z,100303.33
2019-03-01T10:12:14.636Z,100312.39
2019-03-01T10:14:45.224Z,100304.41
2019-03-01T10:17:15.879Z,100307.95
2019-03-01T10:19:46.492Z,100303.47
2019-03-01T10:22:17.060Z,100301.41
2019-03-01T10:24:47.649Z,100305.41
2019-03-01T10:27:18.180Z,100299.73
2019-03-01T10:29:48.711Z,100292.25
2019-03-01T10:32:19.339Z,100292.77
2019-03-01T10:34:49.903Z,100290.05
2019-03-01T10:37:20.532Z,100289.48
2019-03-01T10:39:55.423Z,100292.31
2019-03-01T10:42:23.422Z,100290.81
2019-03-01T10:44:54.052Z,100287.98
2019-03-01T10:47:24.531Z,100286.70
2019-03-01T10:49:55.096Z,100273.64
2019-03-01T10:52:27.075Z,100273.61
2019-03-01T10:54:57.548Z,100272.11
2019-03-01T10:57:28.315Z,100282.92
2019-03-01T10:59:58.977Z,100288.20
2019-03-01T11:02:29.707Z,100287.86
2019-03-01T11:05:02.998Z,100281.91
2019-03-01T11:07:33.565Z,100278.78
2019-03-01T11:10:06.972Z,100279.70
2019-03-01T11:12:37.870Z,100274.33
2019-03-01T11:15:10.594Z,100278.78
2019-03-01T11:17:41.183Z,100279.93
2019-03-01T11:20:16.783Z,100287.69
2019-03-01T11:22:49.299Z,100285.97
2019-03-01T11:25:21.798Z,100286.70
2019-03-01T11:27:52.518Z,100280.91
2019-03-01T11:30:26.370Z,100275.98
2019-03-01T11:32:56.960Z,100276.18
2019-03-01T11:35:27.601Z,100275.28
2019-03-01T11:37:58.328Z,100275.91
2019-03-01T11:40:30.915Z,100280.56
2019-03-01T11:43:01.653Z,100281.95
2019-03-01T11:45:32.279Z,100280.95
2019-03-01T11:48:03.116Z,100271.48
2019-03-01T11:50:33.650Z,100276.09
2019-03-01T11:53:04.182Z,100268.27
2019-03-01T11:55:34.806Z,100276.06
2019-03-01T11:58:05.502Z,100268.63
2019-03-01T12:00:36.078Z,100269.99
2019-03-01T12:03:06.709Z,100268.04
2019-03-01T12:05:37.351Z,100267.83
2019-03-01T12:08:07.976Z,100271.98
2019-03-01T12:10:38.607Z,100268.88
2019-03-01T12:13:09.160Z,100278.64
2019-03-01T12:15:39.777Z,100269.87
2019-03-01T12:18:11.538Z,100274.37
2019-03-01T12:20:42.184Z,100278.77
2019-03-01T12:23:12.801Z,100282.98
2019-03-01T12:25:43.377Z,100280.05
2019-03-01T12:28:13.969Z,100282.13
2019-03-01T12:30:44.597Z,100288.56
2019-03-01T12:33:15.225Z,100291.72
2019-03-01T12:35:45.870Z,100294.69
2019-03-01T12:38:16.602Z,100293.58
2019-03-01T12:40:48.203Z,100297.41
2019-03-01T12:43:18.787Z,100298.23
2019-03-01T12:45:49.385Z,100301.85
2019-03-01T12:48:19.936Z,100301.28
2019-03-01T12:50:50.609Z,100303.48
2019-03-01T12:53:21.183Z,100307.69
2019-03-01T12:55:51.670Z,100310.52
2019-03-01T12:58:22.182Z,100309.27
2019-03-01T13:00:52.711Z,100309.62
2019-03-01T13:03:23.241Z,100304.83
2019-03-01T13:05:53.869Z,100310.91
2019-03-01T13:08:24.401Z,100309.12
2019-03-01T13:10:55.059Z,100306.20
2019-03-01T13:13:25.769Z,100302.09
2019-03-01T13:15:56.397Z,100301.28
2019-03-01T13:18:27.040Z,100301.53
2019-03-01T13:20:57.766Z,100306.34
2019-03-01T13:23:28.412Z,100307.77
2019-03-01T13:25:59.135Z,100312.18
2019-03-01T13:28:29.692Z,100305.05
2019-03-01T13:31:00.246Z,100306.41
2019-03-01T13:33:30.836Z,100312.66
2019-03-01T13:36:03.660Z,100318.16
2019-03-01T13:38:35.096Z,100317.69
2019-03-01T13:41:05.924Z,100319.95
2019-03-01T13:43:36.539Z,100317.48
2019-03-01T13:46:07.277Z,100324.00
2019-03-01T13:48:37.809Z,100321.71
2019-03-01T13:51:08.434Z,100320.66
2019-03-01T13:53:48.517Z,100323.72
2019-03-01T13:56:11.650Z,100319.41
2019-03-01T13:58:42.179Z,100323.95
2019-03-01T14:01:13.018Z,100323.78
2019-03-01T14:03:43.669Z,100328.92
2019-03-01T14:06:15.849Z,100328.92
2019-03-01T14:08:46.489Z,100331.77
2019-03-01T14:11:20.787Z,100330.39
2019-03-01T14:13:56.140Z,100333.84
2019-03-01T14:16:28.697Z,100341.37
2019-03-01T14:18:59.230Z,100340.30
2019-03-01T14:21:32.595Z,100350.17
2019-03-01T14:24:11.411Z,100352.65
2019-03-01T14:26:44.023Z,100347.75
2019-03-01T14:29:16.042Z,100352.42
2019-03-01T14:31:53.729Z,100361.84
2019-03-01T14:34:28.235Z,100361.05
2019-03-01T14:36:58.850Z,100369.64
2019-03-01T14:39:29.494Z,100367.85
2019-03-01T14:42:00.249Z,100371.72
2019-03-01T14:44:33.862Z,100376.47
2019-03-01T14:47:03.022Z,100376.34
2019-03-01T14:49:43.318Z,100385.17
2019-03-01T14:52:15.049Z,100384.81
2019-03-01T14:54:47.160Z,100396.41
2019-03-01T14:57:20.797Z,100407.86
2019-03-01T14:59:58.006Z,100407.92
2019-03-01T15:02:39.771Z,100408.15
2019-03-01T15:05:16.738Z,100413.80
2019-03-01T15:07:40.953Z,100420.19
2019-03-01T15:10:14.428Z,100417.23
2019-03-01T15:12:46.781Z,100420.03
2019-03-01T15:15:22.932Z,100420.61
2019-03-01T15:17:57.008Z,100415.33
2019-03-01T15:20:27.138Z,100417.75
2019-03-01T15:22:57.665Z,100420.97
2019-03-01T15:25:28.294Z,100424.13
2019-03-01T15:27:58.854Z,100421.66
2019-03-01T15:30:29.453Z,100420.45
2019-03-01T15:33:00.102Z,100418.21
2019-03-01T15:35:30.627Z,100428.60
2019-03-01T15:38:01.135Z,100428.73
2019-03-01T15:40:32.674Z,100434.76
2019-03-01T15:43:03.447Z,100439.84
2019-03-01T15:45:36.632Z,100447.34
2019-03-01T15:48:06.177Z,100455.53
2019-03-01T15:50:36.772Z,100464.92
2019-03-01T15:53:07.330Z,100461.50
2019-03-01T15:55:37.837Z,100462.16
2019-03-01T15:58:08.368Z,100464.65
2019-03-01T16:00:38.903Z,100467.66
2019-03-01T16:03:09.389Z,100468.89
2019-03-01T16:05:40.072Z,100472.73
2019-03-01T16:08:10.700Z,100482.52
2019-03-01T16:10:41.326Z,100486.16
2019-03-01T16:13:13.177Z,100496.98
2019-03-01T16:15:43.926Z,100490.44
2019-03-01T16:18:14.626Z,100490.24
2019-03-01T16:20:47.151Z,100487.24
2019-03-01T16:23:17.569Z,100493.38
2019-03-01T16:25:48.097Z,100494.00
2019-03-01T16:28:18.901Z,100497.71
2019-03-01T16:30:49.627Z,100507.17
2019-03-01T16:33:22.432Z,100510.49
2019-03-01T16:35:54.116Z,100509.88
2019-03-01T16:38:24.747Z,100520.14
2019-03-01T16:40:55.379Z,100516.30
2019-03-01T16:43:28.542Z,100514.30
2019-03-01T16:45:59.312Z,100519.77
2019-03-01T16:48:29.846Z,100512.92
2019-03-01T16:51:00.473Z,100530.05
2019-03-01T16:53:30.966Z,100526.72
2019-03-01T16:56:02.607Z,100519.57
2019-03-01T16:58:34.006Z,100517.08
2019-03-01T17:01:04.875Z,100523.74
2019-03-01T17:03:35.485Z,100528.31
2019-03-01T17:06:06.016Z,100533.30
2019-03-01T17:08:39.617Z,100538.70
2019-03-01T17:11:08.700Z,100539.31
2019-03-01T17:13:39.345Z,100546.27
2019-03-01T17:16:10.078Z,100549.06
2019-03-01T17:18:40.710Z,100548.83
2019-03-01T17:21:12.460Z,100550.28
2019-03-01T17:23:43.613Z,100552.58
2019-03-01T17:26:14.362Z,100559.05
2019-03-01T17:28:44.982Z,100559.05
2019-03-01T17:31:15.512Z,100563.56
2019-03-01T17:33:48.853Z,100574.48
2019-03-01T17:36:18.255Z,100574.89
2019-03-01T17:38:48.985Z,100585.07
2019-03-01T17:41:19.592Z,100580.09
2019-03-01T17:43:50.122Z,100584.47
2019-03-01T17:46:20.652Z,100582.31
2019-03-01T17:48:54.249Z,100594.85
2019-03-01T17:51:23.357Z,100604.66
2019-03-01T17:53:53.879Z,100610.41
2019-03-01T17:56:24.507Z,100609.84
2019-03-01T17:58:55.037Z,100615.69
2019-03-01T18:01:25.678Z,100616.13
2019-03-01T18:03:57.984Z,100621.83
2019-03-01T18:06:28.376Z,100630.42
2019-03-01T18:08:58.934Z,100622.42
2019-03-01T18:11:29.537Z,100638.14
2019-03-01T18:14:00.860Z,100627.41
2019-03-01T18:16:32.311Z,100632.80
2019-03-01T18:19:02.971Z,100636.09
2019-03-01T18:21:33.501Z,100647.46
2019-03-01T18:24:04.148Z,100646.17
2019-03-01T18:26:36.445Z,100654.45
2019-03-01T18:29:08.417Z,100660.86
2019-03-01T18:31:39.215Z,100656.13
2019-03-01T18:34:09.851Z,100670.84
2019-03-01T18:36:40.491Z,100659.50
2019-03-01T18:39:11.539Z,100664.75
2019-03-01T18:41:42.358Z,100678.98
2019-03-01T18:44:12.998Z,100676.10
2019-03-01T18:46:43.530Z,100678.75
2019-03-01T18:49:16.745Z,100678.41
2019-03-01T18:51:46.323Z,100688.75
2019-03-01T18:54:16.963Z,100690.52
2019-03-01T18:56:47.464Z,100693.73
2019-03-01T18:59:18.030Z,100693.27
2019-03-01T19:01:48.558Z,100697.75
2019-03-01T19:04:29.356Z,100692.85
2019-03-01T19:06:52.537Z,100707.15
2019-03-01T19:09:23.164Z,100706.49
2019-03-01T19:11:53.867Z,100699.89
2019-03-01T19:14:24.380Z,100703.49
2019-03-01T19:16:55.013Z,100709.13
2019-03-01T19:19:29.784Z,100710.69
2019-03-01T19:21:57.818Z,100711.13
2019-03-01T19:24:29.028Z,100717.34
